Kahuku, Hawaii
Current Conditions -  °F | °C
As of 8:58 PM on Saturday 22 Nov 2014 (Local Time) from PHHI Reporting Station
Clear Clear  
Wind Chill: 67°   Ceiling: Unl
Heat Index: 67°   Visibility: 10mi
Dew Point: 64°   Wind: 6mph
Humidity: 92%   Direction: 300°WNW
Pressure: 30.06"   Gusts: NA
Location:  21.67°N, 157.94°W
Report Text: PHHI 230658Z AUTO 30005KT 10SM CLR 19/18 A3006 RMK AO2 SLP171 T01940180 $
Loading
Personal Weather Stations






























Interactive Weather Map New forecast layout! Learn more

10-Day Weather Forecast

Advertisements
Track Severe Weather on mobile